createdAt,value
2018-09-01T00:00:45.952Z,6.97
2018-09-01T00:03:13.644Z,6.40
2018-09-01T00:05:41.317Z,6.97
2018-09-01T00:08:15.876Z,6.53
2018-09-01T00:10:44.266Z,6.80
2018-09-01T00:13:12.172Z,6.28
2018-09-01T00:15:39.846Z,6.50
2018-09-01T00:18:07.417Z,5.72
2018-09-01T00:20:35.152Z,7.22
2018-09-01T00:23:02.750Z,24.40
2018-09-01T00:25:30.880Z,8.10
2018-09-01T00:27:58.460Z,8.63
2018-09-01T00:30:26.574Z,6.92
2018-09-01T00:32:54.104Z,8.75
2018-09-01T00:35:21.659Z,7.67
2018-09-01T00:37:54.972Z,6.40
2018-09-01T00:40:27.213Z,7.95
2018-09-01T00:42:59.459Z,7.87
2018-09-01T00:45:27.468Z,9.70
2018-09-01T00:47:55.821Z,9.15
2018-09-01T00:50:23.984Z,9.18
2018-09-01T00:52:51.853Z,8.25
2018-09-01T00:55:25.286Z,9.00
2018-09-01T00:57:53.309Z,8.55
2018-09-01T01:00:21.510Z,9.48
2018-09-01T01:02:49.694Z,10.45
2018-09-01T01:05:18.253Z,10.43
2018-09-01T01:07:46.181Z,9.95
2018-09-01T01:10:14.311Z,11.85
2018-09-01T01:12:41.926Z,16.45
2018-09-01T01:15:11.911Z,12.30
2018-09-01T01:17:39.759Z,10.25
2018-09-01T01:20:08.122Z,12.73
2018-09-01T01:22:35.779Z,9.60
2018-09-01T01:25:04.177Z,7.53
2018-09-01T01:27:31.768Z,11.03
2018-09-01T01:30:00.037Z,7.45
2018-09-01T01:32:27.682Z,9.15
2018-09-01T01:34:55.380Z,8.60
2018-09-01T01:37:23.006Z,10.60
2018-09-01T01:39:50.607Z,9.88
2018-09-01T01:42:19.547Z,12.28
2018-09-01T01:44:47.184Z,9.08
2018-09-01T01:47:14.780Z,11.28
2018-09-01T01:49:43.826Z,8.00
2018-09-01T01:52:12.123Z,8.05
2018-09-01T01:54:39.681Z,11.57
2018-09-01T01:57:07.235Z,8.28
2018-09-01T01:59:35.539Z,6.92
2018-09-01T02:02:03.596Z,9.33
2018-09-01T02:04:31.345Z,8.28
2018-09-01T02:06:59.189Z,9.63
2018-09-01T02:09:27.353Z,10.85
2018-09-01T02:11:54.917Z,9.08
2018-09-01T02:14:23.273Z,10.40
2018-09-01T02:16:50.811Z,9.48
2018-09-01T02:19:19.392Z,8.63
2018-09-01T02:21:47.161Z,7.58
2018-09-01T02:24:14.724Z,9.10
2018-09-01T02:26:42.751Z,8.98
2018-09-01T02:29:10.381Z,9.73
2018-09-01T02:31:38.056Z,9.08
2018-09-01T02:34:05.913Z,10.35
2018-09-01T02:36:33.795Z,9.08
2018-09-01T02:39:01.905Z,10.58
2018-09-01T02:41:29.476Z,15.30
2018-09-01T02:43:57.036Z,13.58
2018-09-01T02:46:24.627Z,14.47
2018-09-01T02:48:52.378Z,12.80
2018-09-01T02:51:19.939Z,12.55
2018-09-01T02:53:47.556Z,13.55
2018-09-01T02:56:15.106Z,16.67
2018-09-01T02:58:42.639Z,12.23
2018-09-01T03:01:15.808Z,12.47
2018-09-01T03:03:43.423Z,15.80
2018-09-01T03:06:11.036Z,11.53
2018-09-01T03:08:38.934Z,11.20
2018-09-01T03:11:06.524Z,14.38
2018-09-01T03:13:34.954Z,11.70
2018-09-01T03:16:02.545Z,12.30
2018-09-01T03:18:30.774Z,11.53
2018-09-01T03:20:58.377Z,10.78
2018-09-01T03:23:26.364Z,15.38
2018-09-01T03:25:53.975Z,15.85
2018-09-01T03:28:21.495Z,13.70
2018-09-01T03:30:49.431Z,16.45
2018-09-01T03:33:16.980Z,13.00
2018-09-01T03:35:44.577Z,14.13
2018-09-01T03:38:12.235Z,15.15
2018-09-01T03:40:39.796Z,18.20
2018-09-01T03:43:07.403Z,16.25
2018-09-01T03:45:35.021Z,18.92
2018-09-01T03:48:02.904Z,19.87
2018-09-01T03:50:30.535Z,16.17
2018-09-01T03:52:58.119Z,14.87
2018-09-01T03:55:25.712Z,17.40
2018-09-01T03:57:53.368Z,17.80
2018-09-01T04:00:25.617Z,18.82
2018-09-01T04:02:53.522Z,18.82
2018-09-01T04:05:21.265Z,19.00
2018-09-01T04:07:48.824Z,16.27
2018-09-01T04:10:17.096Z,15.05
2018-09-01T04:12:44.892Z,17.85
2018-09-01T04:15:12.505Z,14.65
2018-09-01T04:17:40.043Z,16.62
2018-09-01T04:20:07.689Z,17.77
2018-09-01T04:22:35.248Z,15.00
2018-09-01T04:25:02.876Z,17.05
2018-09-01T04:27:30.890Z,15.70
2018-09-01T04:29:58.677Z,13.55
2018-09-01T04:32:26.243Z,19.17
2018-09-01T04:34:54.064Z,14.00
2018-09-01T04:37:21.590Z,14.68
2018-09-01T04:39:49.370Z,14.95
2018-09-01T04:42:16.919Z,17.27
2018-09-01T04:44:44.531Z,19.70
2018-09-01T04:47:12.222Z,13.03
2018-09-01T04:49:39.724Z,14.33
2018-09-01T04:52:07.287Z,14.30
2018-09-01T04:54:35.817Z,15.63
2018-09-01T04:57:03.427Z,13.30
2018-09-01T04:59:31.418Z,11.75
2018-09-01T05:01:59.449Z,11.28
2018-09-01T05:04:27.086Z,9.25
2018-09-01T05:06:54.776Z,8.13
2018-09-01T05:09:22.440Z,7.62
2018-09-01T05:11:49.945Z,5.90
2018-09-01T05:14:17.501Z,12.45
2018-09-01T05:16:45.264Z,8.48
2018-09-01T05:19:13.554Z,7.85
2018-09-01T05:21:41.136Z,7.47
2018-09-01T05:24:08.721Z,6.05
2018-09-01T05:26:36.364Z,10.08
2018-09-01T05:29:03.977Z,6.45
2018-09-01T05:31:31.687Z,9.48
2018-09-01T05:33:59.475Z,8.13
2018-09-01T05:36:27.141Z,8.43
2018-09-01T05:38:54.625Z,10.15
2018-09-01T05:41:22.903Z,9.55
2018-09-01T05:43:50.531Z,7.45
2018-09-01T05:46:18.072Z,5.70
2018-09-01T05:48:45.692Z,6.20
2018-09-01T05:51:13.352Z,6.87
2018-09-01T05:53:41.005Z,6.55
2018-09-01T05:56:09.362Z,7.95
2018-09-01T05:58:37.809Z,5.85
2018-09-01T06:01:05.504Z,5.47
2018-09-01T06:03:33.324Z,4.35
2018-09-01T06:06:02.363Z,7.47
2018-09-01T06:08:29.781Z,7.10
2018-09-01T06:10:57.388Z,5.37
2018-09-01T06:13:25.043Z,5.10
2018-09-01T06:15:52.723Z,6.33
2018-09-01T06:18:20.652Z,5.65
2018-09-01T06:20:48.175Z,5.53
2018-09-01T06:23:16.276Z,7.40
2018-09-01T06:25:43.888Z,6.00
2018-09-01T06:28:15.387Z,5.28
2018-09-01T06:30:48.119Z,7.28
2018-09-01T06:33:15.811Z,7.28
2018-09-01T06:35:43.516Z,7.12
2018-09-01T06:38:11.090Z,6.40
2018-09-01T06:40:38.799Z,6.85
2018-09-01T06:43:06.503Z,7.78
2018-09-01T06:45:34.178Z,7.10
2018-09-01T06:48:02.604Z,5.20
2018-09-01T06:50:30.455Z,6.42
2018-09-01T06:52:58.082Z,9.95
2018-09-01T06:55:25.685Z,7.08
2018-09-01T06:57:53.348Z,7.10
2018-09-01T07:00:22.295Z,9.28
2018-09-01T07:02:51.424Z,7.33
2018-09-01T07:05:19.694Z,5.42
2018-09-01T07:07:48.360Z,4.80
2018-09-01T07:10:16.085Z,9.20
2018-09-01T07:12:43.980Z,7.17
2018-09-01T07:15:12.736Z,5.90
2018-09-01T07:17:40.872Z,6.92
2018-09-01T07:20:09.127Z,8.03
2018-09-01T07:22:36.812Z,7.85
2018-09-01T07:25:04.611Z,8.08
2018-09-01T07:27:32.336Z,4.58
2018-09-01T07:30:00.075Z,5.95
2018-09-01T07:32:29.355Z,4.83
2018-09-01T07:34:57.886Z,4.95
2018-09-01T07:37:26.520Z,4.60
2018-09-01T07:39:54.781Z,5.62
2018-09-01T07:42:23.320Z,6.20
2018-09-01T07:44:51.285Z,5.53
2018-09-01T07:47:19.029Z,4.37
2018-09-01T07:49:47.384Z,4.57
2018-09-01T07:52:15.118Z,8.48
2018-09-01T07:54:42.994Z,5.53
2018-09-01T07:57:11.097Z,5.65
2018-09-01T07:59:38.961Z,6.78
2018-09-01T08:02:06.813Z,6.63
2018-09-01T08:04:34.839Z,9.05
2018-09-01T08:07:02.649Z,8.10
2018-09-01T08:09:30.373Z,9.35
2018-09-01T08:11:58.768Z,5.35
2018-09-01T08:14:27.029Z,5.08
2018-09-01T08:16:55.177Z,4.30
2018-09-01T08:19:22.956Z,7.77
2018-09-01T08:21:50.872Z,3.40
2018-09-01T08:24:20.371Z,4.53
2018-09-01T08:26:48.246Z,5.20
2018-09-01T08:29:16.105Z,5.67
2018-09-01T08:31:44.081Z,4.80
2018-09-01T08:34:11.943Z,2.93
2018-09-01T08:36:40.668Z,4.50
2018-09-01T08:39:13.541Z,5.13
2018-09-01T08:41:42.264Z,4.07
2018-09-01T08:44:09.923Z,4.00
2018-09-01T08:46:37.565Z,7.20
2018-09-01T08:49:05.997Z,5.77
2018-09-01T08:51:34.348Z,2.43
2018-09-01T08:54:02.196Z,3.23
2018-09-01T08:56:30.056Z,5.17
2018-09-01T08:58:57.918Z,7.53
2018-09-01T09:01:25.500Z,4.83
2018-09-01T09:03:53.568Z,3.23
2018-09-01T09:06:21.189Z,4.40
2018-09-01T09:08:48.889Z,4.93
2018-09-01T09:11:17.125Z,4.00
2018-09-01T09:13:45.368Z,3.10
2018-09-01T09:16:12.994Z,7.03
2018-09-01T09:18:40.687Z,7.10
2018-09-01T09:21:08.352Z,4.57
2018-09-01T09:23:36.964Z,5.67
2018-09-01T09:26:05.110Z,2.23
2018-09-01T09:28:32.747Z,4.30
2018-09-01T09:31:01.576Z,3.10
2018-09-01T09:33:34.093Z,2.33
2018-09-01T09:36:02.514Z,2.20
2018-09-01T09:38:30.260Z,2.60
2018-09-01T09:40:57.970Z,4.97
2018-09-01T09:43:25.764Z,2.60
2018-09-01T09:45:53.670Z,10.47
2018-09-01T09:48:21.397Z,5.63
2018-09-01T09:50:49.767Z,7.40
2018-09-01T09:53:17.426Z,5.97
2018-09-01T09:55:45.310Z,3.60
2018-09-01T09:58:13.158Z,6.00
2018-09-01T10:00:48.926Z,3.57
2018-09-01T10:03:16.689Z,4.83
2018-09-01T10:05:44.584Z,2.63
2018-09-01T10:08:14.441Z,2.17
2018-09-01T10:10:42.352Z,2.43
2018-09-01T10:13:16.559Z,1.43
2018-09-01T10:15:45.131Z,1.73
2018-09-01T10:18:13.039Z,3.40
2018-09-01T10:20:51.484Z,4.63
2018-09-01T10:23:21.073Z,2.80
2018-09-01T10:25:51.379Z,1.77
2018-09-01T10:28:19.192Z,2.40
2018-09-01T10:30:47.101Z,2.20
2018-09-01T10:33:14.844Z,1.53
2018-09-01T10:35:43.932Z,1.63
2018-09-01T10:41:07.836Z,3.87
2018-09-01T10:43:35.688Z,2.10
2018-09-01T10:46:03.603Z,2.77
2018-09-01T10:48:31.237Z,1.30
2018-09-01T10:50:59.617Z,2.60
2018-09-01T10:53:28.813Z,8.53
2018-09-01T10:55:57.857Z,13.37
2018-09-01T10:58:25.731Z,2.50
2018-09-01T11:00:54.481Z,2.73
2018-09-01T11:03:23.755Z,3.23
2018-09-01T11:05:52.492Z,2.67
2018-09-01T11:08:21.118Z,4.40
2018-09-01T11:10:48.881Z,1.67
2018-09-01T11:13:17.660Z,2.10
2018-09-01T11:15:45.475Z,1.10
2018-09-01T11:18:13.193Z,2.30
2018-09-01T11:20:41.210Z,3.20
2018-09-01T11:23:08.944Z,0.63
2018-09-01T11:25:36.876Z,3.27
2018-09-01T11:28:05.320Z,2.40
2018-09-01T11:30:33.053Z,1.60
2018-09-01T11:33:02.002Z,1.67
2018-09-01T11:35:31.001Z,3.13
2018-09-01T11:37:58.745Z,3.33
2018-09-01T11:40:26.493Z,4.93
2018-09-01T11:42:54.628Z,2.20
2018-09-01T11:45:23.387Z,2.27
2018-09-01T11:47:51.360Z,3.43
2018-09-01T11:50:19.076Z,3.67
2018-09-01T11:52:46.984Z,2.60
2018-09-01T11:55:14.751Z,2.50
2018-09-01T11:57:42.676Z,2.40
2018-09-01T12:00:11.199Z,4.83
2018-09-01T12:02:39.242Z,2.17
2018-09-01T12:05:07.753Z,0.93
2018-09-01T12:07:35.616Z,2.83
2018-09-01T12:10:09.147Z,2.17
2018-09-01T12:12:37.445Z,1.10
2018-09-01T12:15:05.153Z,3.27
2018-09-01T12:17:32.964Z,2.23
2018-09-01T12:20:00.806Z,1.90
2018-09-01T12:22:33.052Z,1.57
2018-09-01T12:25:00.715Z,2.67
2018-09-01T12:27:29.684Z,1.10
2018-09-01T12:29:57.361Z,4.20
2018-09-01T12:32:26.489Z,2.23
2018-09-01T12:34:54.514Z,1.53
2018-09-01T12:37:22.844Z,1.67
2018-09-01T12:39:51.030Z,1.57
2018-09-01T12:42:20.037Z,3.97
2018-09-01T12:44:47.641Z,1.67
2018-09-01T12:47:16.373Z,2.50
2018-09-01T12:49:44.124Z,1.77
2018-09-01T12:52:12.428Z,1.10
2018-09-01T12:54:40.104Z,2.20
2018-09-01T12:57:08.354Z,2.40
2018-09-01T12:59:36.875Z,2.67
2018-09-01T13:02:04.829Z,3.43
2018-09-01T13:04:32.486Z,3.17
2018-09-01T13:07:00.935Z,1.53
2018-09-01T13:09:29.255Z,2.10
2018-09-01T13:12:05.918Z,5.63
2018-09-01T13:14:33.729Z,1.63
2018-09-01T13:17:01.408Z,8.90
2018-09-01T13:19:29.625Z,1.37
2018-09-01T13:21:57.431Z,4.67
2018-09-01T13:24:25.086Z,1.43
2018-09-01T13:26:54.267Z,2.60
2018-09-01T13:29:21.817Z,0.93
2018-09-01T13:31:50.536Z,1.43
2018-09-01T13:34:18.202Z,1.50
2018-09-01T13:36:45.776Z,4.40
2018-09-01T13:39:13.782Z,2.70
2018-09-01T13:41:42.513Z,2.20
2018-09-01T13:44:10.968Z,2.10
2018-09-01T13:46:38.961Z,2.30
2018-09-01T13:49:07.108Z,4.20
2018-09-01T13:51:34.830Z,2.30
2018-09-01T13:54:02.481Z,3.03
2018-09-01T13:56:30.272Z,1.50
2018-09-01T13:58:58.000Z,1.30
2018-09-01T14:01:25.705Z,1.03
2018-09-01T14:03:53.392Z,1.33
2018-09-01T14:06:21.249Z,4.23
2018-09-01T14:08:49.861Z,2.40
2018-09-01T14:11:18.702Z,2.93
2018-09-01T14:13:46.403Z,2.83
2018-09-01T14:16:14.373Z,2.40
2018-09-01T14:18:46.656Z,2.20
2018-09-01T14:21:14.446Z,2.97
2018-09-01T14:23:42.720Z,0.80
2018-09-01T14:26:10.383Z,1.60
2018-09-01T14:28:37.950Z,1.33
2018-09-01T14:31:05.685Z,0.73
2018-09-01T14:33:33.582Z,3.33
2018-09-01T14:36:04.077Z,1.23
2018-09-01T14:38:31.255Z,2.97
2018-09-01T14:40:59.065Z,2.97
2018-09-01T14:43:26.975Z,1.87
2018-09-01T14:45:55.475Z,2.80
2018-09-01T14:48:23.409Z,1.13
2018-09-01T14:50:51.086Z,1.90
2018-09-01T14:53:23.567Z,1.43
2018-09-01T14:55:51.464Z,4.03
2018-09-01T14:58:20.628Z,1.70
2018-09-01T15:00:49.530Z,2.33
2018-09-01T15:03:17.532Z,1.53
2018-09-01T15:05:45.865Z,1.90
2018-09-01T15:08:13.853Z,1.47
2018-09-01T15:13:23.365Z,2.13
2018-09-01T15:15:51.027Z,3.23
2018-09-01T15:18:18.680Z,1.53
2018-09-01T15:20:47.426Z,2.63
2018-09-01T15:23:15.493Z,1.13
2018-09-01T15:25:43.586Z,3.50
2018-09-01T15:28:11.645Z,1.50
2018-09-01T15:30:40.184Z,1.83
2018-09-01T15:33:08.006Z,1.70
2018-09-01T15:35:35.899Z,1.20
2018-09-01T15:38:23.039Z,2.23
2018-09-01T15:40:51.593Z,1.17
2018-09-01T15:51:47.743Z,0.90
2018-09-01T15:54:15.545Z,2.80
2018-09-01T15:56:43.368Z,1.63
2018-09-01T15:59:11.156Z,0.97
2018-09-01T16:01:38.998Z,2.97
2018-09-01T16:04:06.849Z,1.00
2018-09-01T16:06:34.620Z,2.83
2018-09-01T16:09:02.468Z,3.20
2018-09-01T16:11:30.262Z,2.97
2018-09-01T16:13:57.995Z,1.40
2018-09-01T16:16:26.300Z,1.37
2018-09-01T16:18:54.554Z,1.07
2018-09-01T16:21:22.610Z,0.90
2018-09-01T16:23:50.644Z,1.63
2018-09-01T16:26:18.197Z,1.27
2018-09-01T16:28:47.742Z,1.33
2018-09-01T16:31:15.551Z,2.00
2018-09-01T16:33:43.232Z,6.30
2018-09-01T16:36:15.246Z,1.87
2018-09-01T16:38:43.536Z,1.37
2018-09-01T16:41:11.328Z,0.70
2018-09-01T16:43:39.170Z,0.73
2018-09-01T16:46:06.808Z,2.00
2018-09-01T16:48:34.645Z,0.80
2018-09-01T16:51:03.961Z,0.90
2018-09-01T16:53:31.745Z,1.27
2018-09-01T16:56:00.499Z,1.50
2018-09-01T16:58:28.396Z,2.07
2018-09-01T17:00:56.106Z,4.00
2018-09-01T17:03:24.206Z,5.30
2018-09-01T17:05:51.987Z,1.10
2018-09-01T17:08:19.778Z,4.93
2018-09-01T17:10:48.693Z,5.43
2018-09-01T17:13:17.612Z,1.43
2018-09-01T17:15:46.027Z,2.30
2018-09-01T17:18:14.608Z,3.33
2018-09-01T17:20:42.420Z,2.67
2018-09-01T17:23:10.044Z,2.70
2018-09-01T17:25:37.738Z,0.93
2018-09-01T17:28:05.603Z,1.50
2018-09-01T17:30:34.497Z,0.70
2018-09-01T17:33:02.442Z,2.03
2018-09-01T17:35:30.214Z,2.00
2018-09-01T17:37:59.347Z,1.83
2018-09-01T17:40:27.069Z,1.37
2018-09-01T17:42:55.372Z,1.40
2018-09-01T17:45:23.211Z,1.30
2018-09-01T17:47:51.065Z,2.30
2018-09-01T17:50:18.838Z,1.77
2018-09-01T17:52:46.618Z,2.67
2018-09-01T17:55:19.276Z,2.40
2018-09-01T17:57:46.908Z,1.33
2018-09-01T18:00:15.949Z,0.90
2018-09-01T18:02:43.691Z,2.73
2018-09-01T18:05:11.522Z,1.90
2018-09-01T18:07:39.433Z,1.77
2018-09-01T18:10:07.349Z,2.50
2018-09-01T18:12:35.561Z,1.33
2018-09-01T18:15:03.527Z,2.07
2018-09-01T18:17:31.407Z,1.00
2018-09-01T18:19:59.137Z,1.37
2018-09-01T18:22:27.009Z,2.80
2018-09-01T18:24:54.726Z,2.30
2018-09-01T18:27:22.369Z,5.63
2018-09-01T18:29:55.500Z,6.60
2018-09-01T18:32:23.226Z,2.70
2018-09-01T18:34:51.046Z,3.53
2018-09-01T18:37:19.260Z,3.73
2018-09-01T18:39:47.785Z,1.90
2018-09-01T18:42:15.914Z,3.03
2018-09-01T18:44:48.943Z,2.50
2018-09-01T18:47:16.678Z,1.93
2018-09-01T18:49:44.517Z,2.33
2018-09-01T18:52:12.577Z,2.03
2018-09-01T18:54:40.869Z,2.90
2018-09-01T18:57:08.727Z,2.33
2018-09-01T18:59:36.461Z,2.70
2018-09-01T19:02:04.902Z,3.20
2018-09-01T19:04:32.890Z,4.83
2018-09-01T19:07:00.659Z,2.20
2018-09-01T19:09:28.454Z,3.10
2018-09-01T19:11:56.146Z,3.97
2018-09-01T19:14:23.806Z,1.93
2018-09-01T19:16:51.590Z,3.07
2018-09-01T19:19:19.397Z,1.80
2018-09-01T19:21:47.030Z,3.33
2018-09-01T19:24:15.614Z,1.60
2018-09-01T19:26:43.812Z,2.30
2018-09-01T19:29:11.738Z,1.73
2018-09-01T19:31:39.618Z,0.90
2018-09-01T19:34:07.436Z,2.53
2018-09-01T19:36:35.109Z,1.07
2018-09-01T19:39:03.362Z,1.00
2018-09-01T19:41:31.281Z,1.60
2018-09-01T19:43:59.571Z,5.60
2018-09-01T19:46:28.072Z,1.53
2018-09-01T19:48:56.033Z,2.70
2018-09-01T19:51:24.038Z,1.37
2018-09-01T19:53:52.145Z,0.80
2018-09-01T19:56:20.717Z,3.60
2018-09-01T19:58:52.792Z,2.60
2018-09-01T20:01:20.855Z,1.07
2018-09-01T20:03:48.732Z,1.53
2018-09-01T20:06:16.763Z,1.70
2018-09-01T20:08:45.486Z,1.57
2018-09-01T20:11:18.868Z,1.70
2018-09-01T20:13:47.763Z,2.63
2018-09-01T20:16:16.350Z,1.33
2018-09-01T20:18:44.005Z,1.17
2018-09-01T20:21:16.414Z,2.40
2018-09-01T20:23:44.720Z,2.20
2018-09-01T20:26:13.393Z,1.57
2018-09-01T20:28:46.466Z,1.77
2018-09-01T20:31:14.287Z,2.67
2018-09-01T20:33:41.873Z,2.10
2018-09-01T20:36:15.148Z,2.73
2018-09-01T20:38:43.236Z,2.10
2018-09-01T20:41:10.902Z,2.80
2018-09-01T20:43:38.856Z,3.33
2018-09-01T20:46:08.140Z,1.60
2018-09-01T20:48:35.988Z,1.93
2018-09-01T20:51:04.418Z,4.10
2018-09-01T20:53:32.293Z,4.03
2018-09-01T20:56:00.209Z,2.73
2018-09-01T20:58:28.086Z,1.60
2018-09-01T21:00:55.929Z,2.40
2018-09-01T21:03:23.724Z,1.53
2018-09-01T21:05:51.340Z,2.30
2018-09-01T21:08:19.424Z,9.63
2018-09-01T21:10:47.272Z,2.60
2018-09-01T21:13:15.388Z,1.00
2018-09-01T21:15:44.612Z,0.90
2018-09-01T21:18:12.941Z,0.90
2018-09-01T21:20:40.649Z,1.33
2018-09-01T21:23:08.268Z,4.30
2018-09-01T21:25:35.969Z,1.60
2018-09-01T21:28:03.861Z,5.00
2018-09-01T21:30:32.256Z,1.07
2018-09-01T21:33:00.675Z,1.53
2018-09-01T21:35:28.278Z,3.30
2018-09-01T21:37:56.217Z,1.47
2018-09-01T21:40:24.765Z,1.60
2018-09-01T21:42:58.281Z,2.40
2018-09-01T21:45:26.583Z,2.00
2018-09-01T21:47:55.013Z,2.27
2018-09-01T21:50:22.979Z,1.67
2018-09-01T21:52:51.226Z,1.27
2018-09-01T21:55:19.801Z,1.17
2018-09-01T21:57:48.326Z,1.07
2018-09-01T22:00:16.125Z,2.10
2018-09-01T22:02:44.297Z,1.20
2018-09-01T22:05:15.954Z,2.10
2018-09-01T22:07:44.108Z,1.23
2018-09-01T22:10:11.854Z,2.40
2018-09-01T22:12:39.509Z,2.20
2018-09-01T22:15:07.419Z,3.83
2018-09-01T22:17:35.081Z,1.13
2018-09-01T22:20:03.052Z,1.30
2018-09-01T22:22:30.677Z,3.27
2018-09-01T22:24:58.685Z,1.27
2018-09-01T22:27:26.530Z,4.13
2018-09-01T22:29:54.194Z,1.27
2018-09-01T22:32:36.306Z,1.37
2018-09-01T22:35:04.082Z,1.50
2018-09-01T22:40:12.230Z,1.90
2018-09-01T22:42:44.313Z,1.98
2018-09-01T22:45:15.024Z,4.07
2018-09-01T22:47:43.044Z,2.52
2018-09-01T22:50:10.841Z,3.37
2018-09-01T22:52:42.352Z,1.47
2018-09-01T22:55:10.235Z,1.35
2018-09-01T22:57:41.848Z,2.92
2018-09-01T23:03:02.290Z,2.83
2018-09-01T23:05:30.017Z,2.50
2018-09-01T23:08:01.660Z,1.95
2018-09-01T23:10:37.150Z,2.65
2018-09-01T23:13:07.341Z,2.90
2018-09-01T23:15:35.285Z,2.33
2018-09-01T23:18:04.569Z,1.62
2018-09-01T23:20:32.397Z,4.47
2018-09-01T23:23:04.980Z,1.95
2018-09-01T23:25:32.643Z,3.65
2018-09-01T23:28:00.668Z,2.92
2018-09-01T23:30:28.359Z,2.98
2018-09-01T23:32:56.004Z,2.27
2018-09-01T23:35:23.859Z,3.67
2018-09-01T23:37:51.569Z,1.27
2018-09-01T23:40:21.449Z,2.62
2018-09-01T23:42:49.230Z,1.98
2018-09-01T23:45:16.909Z,1.65
2018-09-01T23:47:47.253Z,7.97
2018-09-01T23:50:19.026Z,3.35
2018-09-01T23:52:46.662Z,1.60
2018-09-01T23:55:14.667Z,7.55
2018-09-01T23:57:44.281Z,1.77
